Wilmington, North Carolina
Current Conditions -  °F | °C
As of 2:53 AM on Thursday 29 Jan 2015 (Local Time) from KILM Reporting Station
Clear Clear  
Wind Chill: 25°   Ceiling: Unl
Heat Index: 25°   Visibility: 10mi
Dew Point: 21°   Wind: 0mph
Humidity: 85%   Direction: NA
Pressure: 30.34"   Gusts: NA
Location:  34.24°N, 77.94°W
Report Text: KILM 290753Z AUTO 00000KT 10SM CLR M04/M06 A3034 RMK AO2 SLP271 I1000 T10391061
Loading
Personal Weather Stations






























Interactive Weather Map New forecast layout! Learn more

10-Day Weather Forecast

Advertisements
Track Severe Weather on mobile